createdAt,value
2022-09-10T00:57:02.595Z,100116.88
2022-09-10T00:59:06.175Z,100122.28
2022-09-10T01:01:09.077Z,100119.81
2022-09-10T01:03:13.010Z,100119.72
2022-09-10T01:05:17.354Z,100111.19
2022-09-10T01:07:23.932Z,100117.34
2022-09-10T01:09:28.034Z,100107.38
2022-09-10T01:11:47.892Z,100110.41
2022-09-10T01:14:02.971Z,100113.75
2022-09-10T01:16:16.728Z,100110.03
2022-09-10T01:18:28.199Z,100114.88
2022-09-10T01:20:51.143Z,100116.97
2022-09-10T01:23:04.812Z,100121.41
2022-09-10T01:25:14.667Z,100108.31
2022-09-10T01:27:35.752Z,100117.16
2022-09-10T01:29:47.289Z,100108.31
2022-09-10T01:31:54.707Z,100112.69
2022-09-10T01:34:03.305Z,100120.66
2022-09-10T01:36:14.505Z,100119.72
2022-09-10T01:38:22.005Z,100121.41
2022-09-10T01:40:29.864Z,100115.91
2022-09-10T01:42:41.776Z,100114.66
2022-09-10T01:44:47.166Z,100114.66
2022-09-10T01:47:02.071Z,100117.63
2022-09-10T02:56:41.484Z,100127.22
2022-09-10T02:58:45.213Z,100123.50
2022-09-10T03:00:48.841Z,100133.94
2022-09-10T03:02:53.165Z,100136.03
2022-09-10T03:04:56.064Z,100129.22
2022-09-10T03:07:01.013Z,100128.16
2022-09-10T03:09:04.114Z,100131.28
2022-09-10T03:11:08.168Z,100128.63
2022-09-10T03:13:12.629Z,100120.09
2022-09-10T03:15:15.732Z,100120.09
2022-09-10T03:17:19.698Z,100121.88
2022-09-10T03:19:24.084Z,100128.81
2022-09-10T03:21:29.345Z,100124.84
2022-09-10T03:23:33.765Z,100123.72
2022-09-10T03:25:36.664Z,100123.59
2022-09-10T03:27:41.125Z,100125.09
2022-09-10T03:29:45.821Z,100128.53
2022-09-10T03:31:51.823Z,100125.97
2022-09-10T03:33:57.623Z,100126.38
2022-09-10T03:36:04.192Z,100131.47
2022-09-10T03:38:08.448Z,100131.84
2022-09-10T03:40:12.072Z,100121.22
2022-09-10T03:42:15.634Z,100117.44
2022-09-10T03:44:18.878Z,100122.63
2022-09-10T03:46:24.528Z,100116.09
2022-09-10T03:48:27.672Z,100115.72
2022-09-10T03:50:30.957Z,100115.53
2022-09-10T03:52:33.918Z,100114.59
2022-09-10T03:54:37.983Z,100117.63
2022-09-10T03:56:41.503Z,100122.09
2022-09-10T03:58:44.768Z,100131.69
2022-09-10T04:00:47.790Z,100123.50
2022-09-10T04:02:52.044Z,100135.28
2022-09-10T04:05:01.681Z,100125.97
2022-09-10T04:07:05.555Z,100135.94
2022-09-10T04:09:10.171Z,100135.94
2022-09-10T04:11:14.103Z,100132.25
2022-09-10T04:13:17.764Z,100127.84
2022-09-10T04:15:20.892Z,100131.09
2022-09-10T04:17:25.369Z,100137.34
2022-09-10T04:19:30.044Z,100133.00
2022-09-10T04:21:32.966Z,100129.59
2022-09-10T04:23:35.922Z,100121.72
2022-09-10T04:25:42.100Z,100123.31
2022-09-10T04:27:44.950Z,100120.44
2022-09-10T04:29:49.126Z,100124.25
2022-09-10T04:31:55.317Z,100123.50
2022-09-10T04:34:02.144Z,100135.94
2022-09-10T04:36:09.154Z,100130.91
2022-09-10T04:38:15.636Z,100118.50
2022-09-10T04:40:20.680Z,100126.16
2022-09-10T04:42:26.007Z,100135.16
2022-09-10T04:44:29.901Z,100134.34
2022-09-10T04:46:33.006Z,100139.34
2022-09-10T04:48:38.132Z,100138.69
2022-09-10T04:50:59.303Z,100142.13
2022-09-10T04:53:11.254Z,100141.25
2022-09-10T04:55:14.322Z,100143.72
2022-09-10T04:57:17.382Z,100140.31
2022-09-10T04:59:21.329Z,100142.13
2022-09-10T05:01:24.422Z,100141.16
2022-09-10T05:03:29.653Z,100143.16
2022-09-10T05:05:33.236Z,100154.44
2022-09-10T05:07:38.356Z,100150.66
2022-09-10T05:09:42.852Z,100148.09
2022-09-10T05:11:50.864Z,100155.31
2022-09-10T05:13:56.202Z,100154.28
2022-09-10T05:16:07.611Z,100146.47
2022-09-10T05:18:10.958Z,100158.63
2022-09-10T05:20:15.252Z,100158.94
2022-09-10T05:22:27.336Z,100166.34
2022-09-10T05:24:34.515Z,100160.81
2022-09-10T05:26:41.676Z,100163.38
2022-09-10T05:28:45.891Z,100160.44
2022-09-10T05:30:52.096Z,100162.16
2022-09-10T05:32:58.138Z,100158.16
2022-09-10T05:35:02.122Z,100164.31
2022-09-10T05:37:05.849Z,100154.66
2022-09-10T05:39:09.407Z,100160.53
2022-09-10T05:41:13.613Z,100157.66
2022-09-10T05:43:22.554Z,100164.50
2022-09-10T05:45:26.947Z,100161.00
2022-09-10T05:47:30.255Z,100163.38
2022-09-10T05:49:37.529Z,100162.00
2022-09-10T05:51:41.492Z,100166.88
2022-09-10T05:53:45.081Z,100161.84
2022-09-10T05:55:48.673Z,100169.25
2022-09-10T05:57:52.042Z,100168.28
2022-09-10T05:59:58.042Z,100179.13
2022-09-10T06:02:01.184Z,100174.69
2022-09-10T06:04:05.730Z,100159.28
2022-09-10T06:06:09.852Z,100172.06
2022-09-10T06:08:16.944Z,100175.91
2022-09-10T06:10:20.941Z,100173.97
2022-09-10T06:12:27.331Z,100181.59
2022-09-10T06:14:32.146Z,100180.72
2022-09-10T06:16:38.232Z,100186.34
2022-09-10T06:18:45.222Z,100189.00
2022-09-10T06:20:52.075Z,100198.31
2022-09-10T06:22:55.381Z,100196.56
2022-09-10T06:24:58.762Z,100192.78
2022-09-10T06:27:02.065Z,100202.66
2022-09-10T06:29:07.183Z,100204.00
2022-09-10T06:31:14.223Z,100201.53
2022-09-10T06:33:19.600Z,100202.50
2022-09-10T06:35:22.849Z,100209.63
2022-09-10T06:37:26.964Z,100210.16
2022-09-10T06:39:31.237Z,100217.50
2022-09-10T06:41:36.921Z,100215.47
2022-09-10T06:43:44.926Z,100217.25
2022-09-10T06:45:57.438Z,100216.13
2022-09-10T06:48:40.020Z,100228.56
2022-09-10T06:50:54.273Z,100228.34
2022-09-10T06:53:00.005Z,100231.06
2022-09-10T06:55:04.202Z,100231.00
2022-09-10T06:57:13.902Z,100229.25
2022-09-10T06:59:18.360Z,100231.19
2022-09-10T07:01:25.708Z,100238.19
2022-09-10T07:03:36.202Z,100229.28
2022-09-10T07:05:39.158Z,100235.38
2022-09-10T07:07:42.111Z,100234.03
2022-09-10T07:09:45.486Z,100225.78
2022-09-10T07:11:51.819Z,100235.75
2022-09-10T07:13:55.594Z,100236.78
2022-09-10T07:16:08.395Z,100247.00
2022-09-10T07:18:14.291Z,100237.06
2022-09-10T07:20:19.306Z,100243.19
2022-09-10T07:22:23.795Z,100248.69
2022-09-10T07:24:27.204Z,100245.41
2022-09-10T07:26:50.356Z,100244.38
2022-09-10T07:28:53.351Z,100241.47
2022-09-10T07:30:57.822Z,100240.16
2022-09-10T07:33:00.793Z,100242.66
2022-09-10T07:35:07.525Z,100245.34
2022-09-10T07:37:12.043Z,100248.09
2022-09-10T07:39:16.246Z,100252.09
2022-09-10T07:41:19.670Z,100248.88
2022-09-10T07:43:23.754Z,100251.22
2022-09-10T07:45:28.924Z,100253.34
2022-09-10T07:47:31.924Z,100245.91
2022-09-10T07:49:34.965Z,100252.19
2022-09-10T07:51:40.483Z,100251.34
2022-09-10T07:53:50.536Z,100261.22
2022-09-10T07:55:59.742Z,100259.06
2022-09-10T07:58:03.960Z,100260.56
2022-09-10T08:00:12.324Z,100257.84
2022-09-10T08:02:17.981Z,100258.53
2022-09-10T08:04:36.461Z,100265.91
2022-09-10T08:06:44.085Z,100267.22
2022-09-10T08:08:48.698Z,100272.38
2022-09-10T08:10:52.446Z,100266.09
2022-09-10T08:12:58.452Z,100264.75
2022-09-10T08:15:03.477Z,100267.19
2022-09-10T08:17:07.778Z,100264.75
2022-09-10T08:19:16.179Z,100269.91
2022-09-10T08:21:20.610Z,100279.31
2022-09-10T08:23:24.107Z,100277.09
2022-09-10T08:25:31.307Z,100267.63
2022-09-10T08:27:35.447Z,100268.78
2022-09-10T08:29:40.716Z,100260.53
2022-09-10T08:31:47.259Z,100268.09
2022-09-10T08:34:02.034Z,100261.91
2022-09-10T08:36:10.427Z,100270.69
2022-09-10T08:38:14.465Z,100258.09
2022-09-10T08:40:18.271Z,100257.13
2022-09-10T08:42:26.920Z,100264.50
2022-09-10T08:44:35.905Z,100274.72
2022-09-10T08:46:46.694Z,100262.25
2022-09-10T08:48:55.081Z,100260.22
2022-09-10T08:51:00.684Z,100266.09
2022-09-10T08:53:12.498Z,100261.69
2022-09-10T08:55:30.049Z,100259.59
2022-09-10T08:57:38.220Z,100259.50
2022-09-10T08:59:44.942Z,100253.81
2022-09-10T09:01:51.784Z,100268.03
2022-09-10T09:03:57.270Z,100258.19
2022-09-10T09:06:07.001Z,100258.97
2022-09-10T09:08:18.082Z,100255.25
2022-09-10T09:10:30.494Z,100248.25
2022-09-10T09:12:40.655Z,100247.84
2022-09-10T09:14:51.296Z,100250.03
2022-09-10T09:17:19.756Z,100226.41
2022-09-10T09:19:30.388Z,100229.81
2022-09-10T09:21:41.632Z,100230.38
2022-09-10T09:24:11.604Z,100214.28
2022-09-10T09:26:16.182Z,100211.25
2022-09-10T09:28:33.497Z,100213.00
2022-09-10T09:30:39.052Z,100225.56
2022-09-10T09:32:43.789Z,100216.56
2022-09-10T09:34:51.207Z,100226.69
2022-09-10T09:36:58.087Z,100228.28
2022-09-10T09:39:03.376Z,100220.53
2022-09-10T09:41:16.195Z,100221.22
2022-09-10T09:43:29.769Z,100224.09
2022-09-10T09:45:37.297Z,100224.69
2022-09-10T09:47:41.186Z,100229.41
2022-09-10T09:49:45.679Z,100241.06
2022-09-10T09:51:51.788Z,100245.00
2022-09-10T09:54:34.525Z,100246.19
2022-09-10T09:56:26.589Z,100240.34
2022-09-10T09:58:48.695Z,100237.97
2022-09-10T10:00:55.621Z,100240.22
2022-09-10T10:03:08.287Z,100237.66
2022-09-10T10:05:23.837Z,100239.06
2022-09-10T10:07:31.472Z,100240.78
2022-09-10T10:09:36.038Z,100239.94
2022-09-10T10:11:45.424Z,100239.06
2022-09-10T10:13:51.493Z,100243.94
2022-09-10T10:15:54.536Z,100246.88
2022-09-10T10:17:58.030Z,100230.94
2022-09-10T10:20:09.888Z,100233.72
2022-09-10T10:22:24.499Z,100228.50
2022-09-10T10:24:32.825Z,100230.13
2022-09-10T10:26:36.483Z,100226.28
2022-09-10T10:28:39.468Z,100222.63
2022-09-10T10:30:45.390Z,100214.53
2022-09-10T10:32:51.209Z,100205.97
2022-09-10T10:34:59.214Z,100213.38
2022-09-10T10:37:09.041Z,100206.22
2022-09-10T10:39:16.320Z,100202.91
2022-09-10T10:41:31.745Z,100202.16
2022-09-10T10:43:44.227Z,100201.09
2022-09-10T10:45:56.624Z,100202.91
2022-09-10T10:48:05.255Z,100190.84
2022-09-10T10:50:19.371Z,100197.69
2022-09-10T10:52:28.020Z,100197.28
2022-09-10T10:54:44.374Z,100185.44
2022-09-10T10:56:56.317Z,100201.44
2022-09-10T10:59:18.874Z,100204.09
2022-09-10T11:01:27.921Z,100213.91
2022-09-10T11:03:35.656Z,100217.91
2022-09-10T11:05:40.056Z,100225.47
2022-09-10T11:07:44.104Z,100229.19
2022-09-10T11:09:49.694Z,100230.41
2022-09-10T11:11:56.968Z,100234.88
2022-09-10T11:14:02.943Z,100234.28
2022-09-10T11:16:15.070Z,100236.56
2022-09-10T11:18:22.469Z,100241.50
2022-09-10T11:20:30.333Z,100245.31
2022-09-10T11:22:35.587Z,100252.72
2022-09-10T11:24:42.655Z,100261.13
2022-09-10T11:26:47.010Z,100256.28
2022-09-10T11:28:57.197Z,100264.75
2022-09-10T11:31:08.539Z,100260.66
2022-09-10T11:33:17.026Z,100263.44
2022-09-10T11:35:23.999Z,100260.41
2022-09-10T11:37:35.426Z,100248.22
2022-09-10T11:39:41.442Z,100247.13
2022-09-10T11:41:45.163Z,100256.13
2022-09-10T11:43:53.264Z,100252.84
2022-09-10T11:45:59.056Z,100255.09
2022-09-10T11:48:10.578Z,100248.75
2022-09-10T11:50:24.209Z,100246.34
2022-09-10T11:52:30.056Z,100252.63
2022-09-10T11:54:36.032Z,100250.66
2022-09-10T11:56:50.582Z,100262.97
2022-09-10T11:59:05.266Z,100262.31
2022-09-10T12:01:16.330Z,100272.97
2022-09-10T12:03:44.754Z,100273.97
2022-09-10T12:05:56.385Z,100283.41
2022-09-10T12:08:06.174Z,100274.84
2022-09-10T12:10:16.503Z,100276.28
2022-09-10T12:12:25.248Z,100270.38
2022-09-10T12:14:28.198Z,100278.28
2022-09-10T12:16:36.319Z,100275.69
2022-09-10T12:18:44.979Z,100280.31
2022-09-10T12:20:52.569Z,100273.09
2022-09-10T12:22:56.586Z,100272.44
2022-09-10T12:25:05.705Z,100278.59
2022-09-10T12:27:15.979Z,100263.31
2022-09-10T12:29:34.248Z,100264.44
2022-09-10T12:32:37.087Z,100256.34
2022-09-10T12:34:41.282Z,100249.06
2022-09-10T12:37:26.519Z,100243.47
2022-09-10T12:39:30.064Z,100247.41
2022-09-10T12:41:55.846Z,100252.13
2022-09-10T12:44:01.981Z,100240.16
2022-09-10T12:46:18.425Z,100251.91
2022-09-10T12:48:26.382Z,100246.91
2022-09-10T12:50:38.535Z,100248.31
2022-09-10T12:52:48.737Z,100241.59
2022-09-10T12:54:59.433Z,100252.28
2022-09-10T12:57:22.597Z,100257.16
2022-09-10T12:59:50.082Z,100249.19
2022-09-10T13:01:53.823Z,100250.56
2022-09-10T13:03:58.786Z,100257.59
2022-09-10T13:06:06.044Z,100262.09
2022-09-10T13:08:14.741Z,100253.44
2022-09-10T13:10:23.217Z,100250.50
2022-09-10T13:12:27.516Z,100249.56
2022-09-10T13:14:32.778Z,100259.59
2022-09-10T13:16:40.419Z,100250.31
2022-09-10T13:18:43.460Z,100257.88
2022-09-10T13:20:46.451Z,100249.56
2022-09-10T13:22:57.419Z,100254.91
2022-09-10T13:25:07.275Z,100253.19
2022-09-10T13:27:24.700Z,100245.72
2022-09-10T13:29:30.015Z,100250.31
2022-09-10T13:31:35.038Z,100246.47
2022-09-10T13:33:45.110Z,100251.16
2022-09-10T13:36:17.046Z,100244.88
2022-09-10T13:38:54.158Z,100243.16
2022-09-10T13:41:18.962Z,100242.59
2022-09-10T13:43:44.551Z,100242.03
2022-09-10T13:45:50.587Z,100244.38
2022-09-10T13:48:01.798Z,100239.47
2022-09-10T13:50:11.400Z,100241.94
2022-09-10T13:52:17.360Z,100241.28
2022-09-10T13:54:33.040Z,100241.72
2022-09-10T13:56:39.004Z,100246.28
2022-09-10T13:58:48.444Z,100249.06
2022-09-10T14:00:54.189Z,100250.31
2022-09-10T14:02:58.632Z,100247.34
2022-09-10T14:05:02.086Z,100243.28
2022-09-10T14:07:07.988Z,100241.69
2022-09-10T14:09:12.732Z,100245.94
2022-09-10T14:11:19.871Z,100238.03
2022-09-10T14:13:29.561Z,100234.84
2022-09-10T14:15:37.279Z,100239.53
2022-09-10T14:17:43.172Z,100247.78
2022-09-10T14:19:49.367Z,100252.13
2022-09-10T14:21:53.461Z,100251.91
2022-09-10T14:23:58.172Z,100253.09
2022-09-10T14:26:11.882Z,100246.16
2022-09-10T14:28:27.138Z,100240.72
2022-09-10T14:30:31.482Z,100241.34
2022-09-10T14:32:36.558Z,100241.47
2022-09-10T14:34:39.532Z,100231.19
2022-09-10T14:36:43.723Z,100240.25
2022-09-10T14:38:54.597Z,100228.09
2022-09-10T14:41:04.310Z,100233.00
2022-09-10T14:43:28.989Z,100239.09
2022-09-10T14:45:40.169Z,100237.50
2022-09-10T14:47:52.092Z,100232.34
2022-09-10T14:49:55.139Z,100237.69
2022-09-10T14:51:59.221Z,100238.66
2022-09-10T14:54:02.316Z,100238.53
2022-09-10T14:56:16.158Z,100240.44
2022-09-10T14:58:19.582Z,100245.78
2022-09-10T15:00:24.331Z,100246.22
2022-09-10T15:02:28.387Z,100252.41
2022-09-10T15:04:31.666Z,100246.97
2022-09-10T15:06:34.607Z,100252.00
2022-09-10T15:08:37.543Z,100254.97
2022-09-10T15:10:40.453Z,100261.81
2022-09-10T15:12:45.507Z,100260.19
2022-09-10T15:14:48.393Z,100260.28
2022-09-10T15:16:53.964Z,100262.47
2022-09-10T15:18:58.421Z,100276.28
2022-09-10T15:21:01.694Z,100279.59
2022-09-10T15:23:04.584Z,100279.00
2022-09-10T15:25:10.446Z,100280.50
2022-09-10T15:27:13.617Z,100286.44
2022-09-10T15:29:17.876Z,100289.97
2022-09-10T15:31:20.702Z,100291.06
2022-09-10T15:33:25.076Z,100291.72
2022-09-10T15:35:28.133Z,100292.38
2022-09-10T15:37:30.989Z,100290.88
2022-09-10T15:39:38.088Z,100286.75
2022-09-10T15:41:43.598Z,100297.09
2022-09-10T15:43:46.653Z,100290.69
2022-09-10T15:45:49.920Z,100291.53
2022-09-10T15:47:54.329Z,100290.19
2022-09-10T15:49:58.897Z,100296.75
2022-09-10T15:52:01.786Z,100287.31
2022-09-10T15:54:06.834Z,100292.44
2022-09-10T15:56:11.161Z,100285.19
2022-09-10T15:58:14.479Z,100281.22
2022-09-10T16:00:18.111Z,100281.88
2022-09-10T16:02:21.365Z,100287.31
2022-09-10T16:04:25.077Z,100287.31
2022-09-10T16:06:31.227Z,100286.91
2022-09-10T16:08:35.423Z,100286.00
2022-09-10T16:10:39.993Z,100285.38
2022-09-10T16:12:43.032Z,100291.97
2022-09-10T16:14:46.591Z,100291.34
2022-09-10T16:16:50.960Z,100290.06
2022-09-10T16:18:54.518Z,100291.00
2022-09-10T16:20:57.517Z,100301.47
2022-09-10T16:23:04.258Z,100297.31
2022-09-10T16:25:12.305Z,100298.38
2022-09-10T16:27:20.125Z,100300.94
2022-09-10T16:29:24.312Z,100304.06
2022-09-10T16:31:28.843Z,100302.00
2022-09-10T16:33:32.626Z,100299.88
2022-09-10T16:35:36.644Z,100301.59
2022-09-10T16:37:39.585Z,100310.44
2022-09-10T16:39:44.368Z,100300.22
2022-09-10T16:41:48.906Z,100308.47
2022-09-10T16:43:52.854Z,100307.13
2022-09-10T16:45:56.594Z,100309.09
2022-09-10T16:48:03.971Z,100307.38
2022-09-10T16:50:08.011Z,100311.22
2022-09-10T16:52:12.025Z,100303.97
2022-09-10T16:54:15.963Z,100307.81
2022-09-10T16:56:20.242Z,100308.47
2022-09-10T16:58:23.290Z,100310.78
2022-09-10T17:00:26.995Z,100309.28
2022-09-10T17:02:30.795Z,100319.97
2022-09-10T17:04:34.621Z,100325.53
2022-09-10T17:06:37.807Z,100332.38
2022-09-10T17:08:40.709Z,100337.72
2022-09-10T17:10:44.670Z,100337.50
2022-09-10T17:12:48.951Z,100347.00
2022-09-10T17:14:51.807Z,100344.53
2022-09-10T17:16:54.729Z,100351.13
2022-09-10T17:18:59.394Z,100354.78
2022-09-10T17:21:02.300Z,100358.41
2022-09-10T17:23:05.845Z,100363.97
2022-09-10T17:25:09.151Z,100363.22
2022-09-10T17:27:12.389Z,100362.28
2022-09-10T17:29:18.095Z,100374.66
2022-09-10T17:31:21.124Z,100370.16
2022-09-10T17:33:27.222Z,100372.19
2022-09-10T17:35:31.808Z,100376.56
2022-09-10T17:37:34.782Z,100374.88
2022-09-10T17:39:37.699Z,100378.53
2022-09-10T17:41:40.841Z,100375.94
2022-09-10T17:43:44.526Z,100374.22
2022-09-10T17:45:48.721Z,100385.97
2022-09-10T17:47:51.764Z,100390.69
2022-09-10T17:49:55.169Z,100388.75
2022-09-10T17:51:58.046Z,100386.19
2022-09-10T17:54:02.473Z,100399.31
2022-09-10T17:56:09.796Z,100400.50
2022-09-10T17:58:12.969Z,100402.31
2022-09-10T18:00:16.375Z,100402.63
2022-09-10T18:02:20.647Z,100399.22
2022-09-10T18:04:23.569Z,100413.53
2022-09-10T18:06:28.980Z,100405.72
2022-09-10T18:08:32.638Z,100419.28
2022-09-10T18:10:35.858Z,100416.81
2022-09-10T18:12:38.734Z,100428.56
2022-09-10T18:14:42.138Z,100433.91
2022-09-10T18:16:46.100Z,100425.16
2022-09-10T18:18:55.787Z,100434.97
2022-09-10T18:20:59.875Z,100437.84
2022-09-10T18:23:02.761Z,100446.81
2022-09-10T18:25:06.676Z,100444.47
2022-09-10T18:27:09.542Z,100454.25
2022-09-10T18:29:15.174Z,100454.47
2022-09-10T18:31:18.541Z,100455.63
2022-09-10T18:33:21.474Z,100456.72
2022-09-10T18:35:26.140Z,100460.22
2022-09-10T18:37:29.659Z,100459.38
2022-09-10T18:39:34.130Z,100465.75
2022-09-10T18:41:38.956Z,100470.03
2022-09-10T18:43:41.892Z,100476.22
2022-09-10T18:45:44.844Z,100480.91
2022-09-10T18:47:49.068Z,100493.50
2022-09-10T18:49:52.033Z,100496.06
2022-09-10T18:51:57.505Z,100503.97
2022-09-10T18:54:01.521Z,100498.75
2022-09-10T18:56:09.952Z,100506.44
2022-09-10T18:58:14.197Z,100510.91
2022-09-10T19:00:17.403Z,100513.56
2022-09-10T19:02:21.074Z,100519.78
2022-09-10T19:04:26.466Z,100517.88
2022-09-10T19:06:30.932Z,100526.25
2022-09-10T19:08:35.932Z,100531.31
2022-09-10T19:10:38.961Z,100531.19
2022-09-10T19:12:41.862Z,100535.69
2022-09-10T19:14:45.871Z,100533.78
2022-09-10T19:16:49.782Z,100541.78
2022-09-10T19:18:54.027Z,100536.53
2022-09-10T19:20:57.492Z,100540.19
2022-09-10T19:23:00.592Z,100543.03
2022-09-10T19:25:05.311Z,100544.84
2022-09-10T19:27:08.173Z,100552.88
2022-09-10T19:29:12.705Z,100555.53
2022-09-10T19:31:17.712Z,100558.19
2022-09-10T19:33:20.906Z,100553.81
2022-09-10T19:35:23.957Z,100561.03
2022-09-10T19:37:28.535Z,100560.31
2022-09-10T19:39:31.381Z,100563.91
2022-09-10T19:41:36.596Z,100568.38
2022-09-10T19:43:40.599Z,100566.78
2022-09-10T19:45:44.005Z,100574.22
2022-09-10T19:47:47.221Z,100573.25
2022-09-10T19:49:50.966Z,100570.59
2022-09-10T19:51:54.217Z,100576.91
2022-09-10T19:53:57.524Z,100579.66
2022-09-10T19:56:08.405Z,100586.03
2022-09-10T19:58:13.380Z,100584.44
2022-09-10T20:00:43.047Z,100590.72
2022-09-10T20:02:41.276Z,100575.56
2022-09-10T20:04:45.021Z,100588.31
2022-09-10T20:06:50.494Z,100591.94
2022-09-10T20:08:53.613Z,100593.59
2022-09-10T20:10:56.641Z,100589.19
2022-09-10T20:12:59.570Z,100587.44
2022-09-10T20:15:04.081Z,100603.47
2022-09-10T20:17:07.440Z,100598.22
2022-09-10T20:19:12.104Z,100601.97
2022-09-10T20:21:16.792Z,100598.06
2022-09-10T20:23:20.895Z,100596.31
2022-09-10T20:25:26.834Z,100598.06
2022-09-10T20:27:30.067Z,100603.19
2022-09-10T20:29:33.909Z,100601.47
2022-09-10T20:31:41.477Z,100606.06
2022-09-10T20:33:46.190Z,100606.88
2022-09-10T20:35:49.986Z,100614.06
2022-09-10T20:37:53.413Z,100615.00
2022-09-10T20:39:56.855Z,100615.09
2022-09-10T20:42:00.062Z,100618.63
2022-09-10T20:44:03.360Z,100617.28
2022-09-10T20:46:15.345Z,100621.19
2022-09-10T20:48:22.224Z,100620.16
2022-09-10T20:50:26.173Z,100620.72
2022-09-10T20:52:29.137Z,100632.16
2022-09-10T20:54:32.074Z,100630.69
2022-09-10T20:56:35.454Z,100633.16
2022-09-10T20:58:39.239Z,100635.75
2022-09-10T21:00:43.186Z,100637.16
2022-09-10T21:02:46.742Z,100649.47
2022-09-10T21:04:51.075Z,100647.81
2022-09-10T21:06:55.154Z,100648.50
2022-09-10T21:08:58.441Z,100647.56
2022-09-10T21:11:13.267Z,100655.38
2022-09-10T21:13:16.336Z,100654.41
2022-09-10T21:15:19.527Z,100659.81
2022-09-10T21:17:22.432Z,100667.72
2022-09-10T21:19:26.314Z,100656.31
2022-09-10T21:21:34.073Z,100656.13
2022-09-10T21:23:37.895Z,100660.69
2022-09-10T21:25:40.729Z,100667.00
2022-09-10T21:27:43.620Z,100669.56
2022-09-10T21:29:47.441Z,100667.72
2022-09-10T21:31:53.271Z,100676.78
2022-09-10T21:34:01.920Z,100675.81
2022-09-10T21:36:09.721Z,100674.41
2022-09-10T21:38:15.306Z,100686.78
2022-09-10T21:40:18.517Z,100685.22
2022-09-10T21:42:21.524Z,100685.81
2022-09-10T21:44:25.149Z,100683.34
2022-09-10T21:46:29.605Z,100692.97
2022-09-10T21:48:35.848Z,100692.00
2022-09-10T21:50:38.744Z,100685.22
2022-09-10T21:52:41.893Z,100693.13
2022-09-10T21:54:46.406Z,100688.66
2022-09-10T21:56:49.554Z,100690.66
2022-09-10T21:58:53.323Z,100698.41
2022-09-10T22:00:58.592Z,100698.47
2022-09-10T22:03:01.578Z,100696.28
2022-09-10T22:05:06.770Z,100696.66
2022-09-10T22:07:10.380Z,100703.31
2022-09-10T22:09:15.948Z,100701.06
2022-09-10T22:11:24.289Z,100704.66
2022-09-10T22:13:28.489Z,100704.47
2022-09-10T22:15:31.395Z,100707.22
2022-09-10T22:17:34.444Z,100707.13
2022-09-10T22:19:37.689Z,100714.00
2022-09-10T22:21:41.057Z,100708.69
2022-09-10T22:23:44.572Z,100701.44
2022-09-10T22:25:47.516Z,100710.31
2022-09-10T22:27:52.303Z,100716.66
2022-09-10T22:29:56.798Z,100710.47
2022-09-10T22:32:00.074Z,100714.00
2022-09-10T22:34:04.546Z,100710.47
2022-09-10T22:36:11.714Z,100712.38
2022-09-10T22:38:17.974Z,100707.91
2022-09-10T22:40:23.159Z,100710.75
2022-09-10T22:42:26.212Z,100713.44
2022-09-10T22:44:30.489Z,100725.78
2022-09-10T22:46:34.119Z,100720.47
2022-09-10T22:48:38.607Z,100725.06
2022-09-10T22:50:41.979Z,100724.44
2022-09-10T22:52:45.981Z,100729.94
2022-09-10T22:54:48.841Z,100723.78
2022-09-10T22:56:53.917Z,100721.47
2022-09-10T22:58:58.585Z,100724.59
2022-09-10T23:01:10.828Z,100723.66
2022-09-10T23:03:13.849Z,100723.84
2022-09-10T23:05:16.861Z,100717.63
2022-09-10T23:07:20.230Z,100720.84
2022-09-10T23:09:23.190Z,100723.97
2022-09-10T23:11:28.732Z,100724.88
2022-09-10T23:13:31.734Z,100718.72
2022-09-10T23:15:35.788Z,100723.19
2022-09-10T23:17:40.384Z,100727.91
2022-09-10T23:19:43.850Z,100725.34
2022-09-10T23:21:48.712Z,100728.00
2022-09-10T23:23:53.345Z,100735.31
2022-09-10T23:25:56.790Z,100740.75
2022-09-10T23:27:59.679Z,100736.44
2022-09-10T23:30:03.388Z,100739.16
2022-09-10T23:32:06.498Z,100736.66
2022-09-10T23:34:12.907Z,100735.03
2022-09-10T23:36:16.273Z,100742.22
2022-09-10T23:38:19.476Z,100738.06
2022-09-10T23:40:27.954Z,100742.59
2022-09-10T23:42:33.324Z,100749.22
2022-09-10T23:44:36.710Z,100748.44
2022-09-10T23:46:39.918Z,100752.03
2022-09-10T23:48:46.571Z,100746.91
2022-09-10T23:50:53.438Z,100754.09
2022-09-10T23:52:57.430Z,100754.28
2022-09-10T23:55:00.429Z,100752.38
2022-09-10T23:57:03.911Z,100758.66
2022-09-10T23:59:07.663Z,100757.88
